Home > Products > Valid Products > TAF

000
FTUS41 KILN 291400 AAA
TAFCVG
TAF AMD
KCVG 291404Z 2914/3018 31005KT P6SM SCT035
     FM291600 31008KT P6SM BKN040
     FM300100 27003KT P6SM SCT040
     FM301500 26007KT P6SM BKN040=



000
FTUS41 KILN 291400 AAA
TAFCMH
TAF AMD
KCMH 291404Z 2914/3012 35004KT P6SM SCT025 BKN040
     FM291600 29008KT P6SM BKN040
     FM300100 24004KT P6SM SCT040=



000
FTUS41 KILN 291400 AAA
TAFLCK
TAF AMD
KLCK 291404Z 2914/3012 35004KT P6SM SCT025 BKN040
     FM291600 29008KT P6SM BKN040
     FM300100 24004KT P6SM SCT050=



000
FTUS41 KILN 291400 AAB
TAFDAY
TAF AMD
KDAY 291404Z 2914/3012 32006KT P6SM SCT035
     FM291600 30010KT P6SM BKN040
     FM300100 27006KT P6SM SCT050=



000
FTUS41 KILN 291400 AAA
TAFLUK
TAF AMD
KLUK 291404Z 2914/3012 VRB03KT P6SM SCT025 SCT035
     FM291600 31007KT P6SM BKN040
     FM300100 VRB03KT P6SM SCT040=



000
FTUS41 KILN 291400 AAA
TAFILN
TAF AMD
KILN 291404Z 2914/3012 32005KT P6SM SCT015 BKN035
     FM291600 30007KT P6SM BKN040
     FM300100 27004KT P6SM SCT050=



000
FTUS41 KILN 291200 AAA
TAFDAY
TAF AMD
KDAY 291246Z 2913/3012 32006KT P6SM SCT035
     FM291500 30010KT P6SM BKN040
     FM300100 27006KT P6SM SCT050=



000
FTUS41 KILN 291100
TAFLUK
TAF
KLUK 291135Z 2912/3012 VRB03KT P6SM SCT035
     FM291500 31007KT P6SM BKN040
     FM300100 VRB03KT P6SM SCT040=



000
FTUS41 KILN 291100
TAFILN
TAF
KILN 291135Z 2912/3012 32005KT P6SM BKN020
     FM291500 30007KT P6SM BKN040
     FM300100 27004KT P6SM SCT050=



000
FTUS41 KILN 291100
TAFCMH
TAF
KCMH 291135Z 2912/3012 35004KT P6SM SCT025 BKN040
      TEMPO 2912/2915 BKN025
     FM291500 29008KT P6SM BKN040
     FM300100 24004KT P6SM SCT040=



000
FTUS41 KILN 291100
TAFDAY
TAF
KDAY 291135Z 2912/3012 32006KT P6SM BKN025
     FM291500 30010KT P6SM BKN040
     FM300100 27006KT P6SM SCT050=



000
FTUS41 KILN 291100
TAFCVG
TAF
KCVG 291135Z 2912/3018 31005KT P6SM SCT035
     FM291500 31008KT P6SM BKN040
     FM300100 27003KT P6SM SCT040
     FM301500 26007KT P6SM BKN040=



000
FTUS41 KILN 291100
TAFLCK
TAF
KLCK 291135Z 2912/3012 35004KT P6SM SCT025 BKN040
      TEMPO 2912/2915 BKN025
     FM291500 29008KT P6SM BKN040
     FM300100 24004KT P6SM SCT050=



000
FTUS41 KILN 290900 AAA
TAFCVG
TAF AMD
KCVG 290926Z 2909/3012 33004KT P6SM SCT050
     FM291600 31008KT P6SM BKN040
     FM300100 28003KT P6SM SCT050=



000
FTUS41 KILN 290600 AAA
TAFCMH
TAF AMD
KCMH 290644Z 2907/3006 33003KT P6SM BKN040
      TEMPO 2907/2909 BKN025
     FM291500 29008KT P6SM BKN040
     FM300100 24004KT P6SM SCT050=



000
FTUS41 KILN 290600 AAA
TAFLCK
TAF AMD
KLCK 290644Z 2907/3006 32004KT P6SM BKN040
      TEMPO 2907/2909 BKN025
     FM291500 29008KT P6SM BKN040
     FM300100 24004KT P6SM SCT050=



000
FTUS41 KILN 290500
TAFILN
TAF
KILN 290525Z 2906/3006 32005KT P6SM SCT050
     FM291600 30007KT P6SM BKN040
     FM300100 27004KT P6SM SCT050=



000
FTUS41 KILN 290500
TAFCVG
TAF
KCVG 290525Z 2906/3012 33004KT P6SM SCT050
     FM291600 31008KT P6SM BKN040
     FM300100 28003KT P6SM SCT050=



000
FTUS41 KILN 290500
TAFDAY
TAF
KDAY 290525Z 2906/3006 32006KT P6SM SCT050
     FM291500 30010KT P6SM BKN040
     FM300100 27006KT P6SM SCT050=



000
FTUS41 KILN 290500
TAFLUK
TAF
KLUK 290525Z 2906/3006 33003KT P6SM SCT050
      TEMPO 2910/2912 5SM BR
     FM291600 31007KT P6SM BKN040
     FM300100 VRB03KT P6SM SCT050=



000
FTUS41 KILN 290500
TAFLCK
TAF
KLCK 290525Z 2906/3006 32004KT P6SM BKN040
     FM291500 29008KT P6SM BKN040
     FM300100 24004KT P6SM SCT050=



000
FTUS41 KILN 290500
TAFCMH
TAF
KCMH 290525Z 2906/3006 33003KT P6SM BKN040
     FM291500 29008KT P6SM BKN040
     FM300100 24004KT P6SM SCT050=



000
FTUS41 KILN 282300
TAFCVG
TAF
KCVG 282339Z 2900/3006 33005KT P6SM FEW060
     FM291500 31008KT P6SM BKN045
     FM300200 28003KT P6SM SCT040=



000
FTUS41 KILN 282300
TAFLUK
TAF
KLUK 282339Z 2900/2924 33003KT P6SM FEW060
      TEMPO 2910/2912 5SM BR
     FM291500 31008KT P6SM BKN050=



000
FTUS41 KILN 282300
TAFDAY
TAF
KDAY 282339Z 2900/2924 31008KT P6SM FEW050
     FM291400 30010KT P6SM BKN040=



000
FTUS41 KILN 282300
TAFILN
TAF
KILN 282339Z 2900/2924 31005KT P6SM FEW050
     FM291500 30007KT P6SM SCT045=



000
FTUS41 KILN 282300
TAFLCK
TAF
KLCK 282339Z 2900/2924 32008KT P6SM SCT045 BKN080
     FM290400 32003KT P6SM SCT040
     FM291500 29007KT P6SM BKN045=



000
FTUS41 KILN 282300
TAFCMH
TAF
KCMH 282339Z 2900/2924 32008KT P6SM SCT045 BKN080
     FM290400 33003KT P6SM SCT040
     FM291500 30008KT P6SM BKN045=



000
FTUS41 KILN 282100 AAB
TAFCMH
TAF AMD
KCMH 282111Z 2821/2918 34012KT P6SM SCT040 BKN070
     FM290100 33006KT P6SM BKN040
     FM291000 31006KT P6SM SCT035=



000
FTUS41 KILN 282100 AAA
TAFLCK
TAF AMD
KLCK 282111Z 2821/2918 32011KT P6SM SCT040 BKN070
     FM290100 32005KT P6SM BKN040
     FM291000 32005KT P6SM SCT040=



000
FTUS41 KILN 282100 AAA
TAFILN
TAF AMD
KILN 282109Z 2821/2918 32011KT P6SM SCT040 BKN070
     FM290000 31007KT P6SM BKN040=



000
FTUS41 KILN 282100 AAA
TAFDAY
TAF AMD
KDAY 282109Z 2821/2918 32011KT P6SM SCT035 BKN060
     FM290000 31008KT P6SM BKN040
     FM291000 31005KT P6SM FEW035
     FM291600 31006KT P6SM SCT040=



000
FTUS41 KILN 282000 AAA
TAFLUK
TAF AMD
KLUK 282053Z 2821/2918 31011KT P6SM SCT040 BKN070
     FM290000 32005KT P6SM SCT070
     FM290900 33003KT P6SM BKN035
     FM291400 31006KT P6SM SCT040=



000
FTUS41 KILN 282000 AAB
TAFCVG
TAF AMD
KCVG 282053Z 2821/2924 31011KT P6SM SCT035 BKN060
     FM290000 33007KT P6SM SCT060
     FM290900 33005KT P6SM BKN035
     FM291400 28008KT P6SM SCT040=



000
FTUS41 KILN 281800 AAA
TAFCMH
TAF AMD
KCMH 281843Z 2819/2918 32013KT P6SM VCSH SCT025 BKN035
     FM282300 33006KT P6SM BKN035
     FM291000 31006KT P6SM SCT035=



000
FTUS41 KILN 281800 AAA
TAFCVG
TAF AMD
KCVG 281842Z 2819/2924 31012KT P6SM VCSH BKN035
     FM282300 33007KT P6SM SCT035
     FM290900 33005KT P6SM BKN035
     FM291400 28008KT P6SM SCT040=



000
FTUS41 KILN 281700
TAFLCK
TAF
KLCK 281725Z 2818/2918 32013KT P6SM VCSH SCT025 BKN035
     FM282300 32005KT P6SM BKN035
     FM291000 32005KT P6SM SCT040=



000
FTUS41 KILN 281700
TAFILN
TAF
KILN 281725Z 2818/2918 31012KT P6SM VCSH BKN035
     FM282300 31007KT P6SM BKN035=



000
FTUS41 KILN 281700
TAFCVG
TAF
KCVG 281725Z 2818/2924 32012KT P6SM VCSH BKN035
     FM282300 33007KT P6SM SCT035
     FM290900 33005KT P6SM BKN035
     FM291400 28008KT P6SM SCT040=



000
FTUS41 KILN 281700
TAFCMH
TAF
KCMH 281725Z 2818/2918 33013KT P6SM VCSH SCT025 BKN035
     FM282300 33006KT P6SM BKN035
     FM291000 31006KT P6SM SCT035=



000
FTUS41 KILN 281700
TAFDAY
TAF
KDAY 281725Z 2818/2918 31014KT P6SM VCSH BKN035
     FM282300 32010KT P6SM BKN035
     FM290300 32005KT P6SM BKN040
     FM291000 31005KT P6SM FEW035
     FM291600 31006KT P6SM SCT040=



000
FTUS41 KILN 281700
TAFLUK
TAF
KLUK 281725Z 2818/2918 31010KT P6SM VCSH BKN035
     FM282300 32005KT P6SM SCT035
     FM290900 33003KT P6SM BKN035
     FM291400 31006KT P6SM SCT040=



000
FTUS41 KILN 281400 AAA
TAFCVG
TAF AMD
KCVG 281456Z 2815/2918 32011KT P6SM SCT025 OVC035
     FM281800 32012KT P6SM VCSH BKN035
     FM290000 33007KT P6SM SCT040
     FM291300 28008KT P6SM SCT050=



000
FTUS41 KILN 281300 AAA
TAFLCK
TAF AMD
KLCK 281335Z 2814/2912 30010KT P6SM BKN022
     FM281600 31013KT P6SM VCSH BKN025
     FM282300 32009KT P6SM BKN035
     FM290300 32005KT P6SM SCT040=



000
FTUS41 KILN 281300 AAA
TAFILN
TAF AMD
KILN 281334Z 2814/2912 30011KT P6SM OVC015
     FM281600 31011KT P6SM VCSH BKN025
     FM282300 32010KT P6SM BKN035
     FM290300 32005KT P6SM SCT040=



000
FTUS41 KILN 281300 AAA
TAFLUK
TAF AMD
KLUK 281333Z 2814/2912 32010KT P6SM BKN035
     FM281700 32011KT P6SM VCSH BKN035
     FM290000 34003KT P6SM SCT040=



000
FTUS41 KILN 281100
TAFDAY
TAF
KDAY 281126Z 2812/2912 30011KT P6SM BKN020
     FM281600 31013KT P6SM VCSH BKN025
     FM282300 32010KT P6SM BKN035
     FM290300 32005KT P6SM SCT040=



000
FTUS41 KILN 281100
TAFCVG
TAF
KCVG 281126Z 2812/2918 32011KT P6SM BKN030
     FM281500 32011KT P6SM BKN035
     FM281700 32012KT P6SM VCSH BKN035
     FM290000 33007KT P6SM SCT040
     FM291300 28008KT P6SM SCT050=



000
FTUS41 KILN 281100
TAFLUK
TAF
KLUK 281126Z 2812/2912 32010KT P6SM BKN028
     FM281500 32010KT P6SM BKN035
     FM281700 32011KT P6SM VCSH BKN035
     FM290000 34003KT P6SM SCT040=



000
FTUS41 KILN 281100
TAFLCK
TAF
KLCK 281126Z 2812/2912 30010KT P6SM BKN018
     FM281600 31013KT P6SM VCSH BKN025
     FM282300 32009KT P6SM BKN035
     FM290300 32005KT P6SM SCT040=



000
FTUS41 KILN 281100
TAFCMH
TAF
KCMH 281126Z 2812/2912 30010KT P6SM BKN018
     FM281600 31013KT P6SM VCSH BKN025
     FM282300 32009KT P6SM BKN035
     FM290300 32005KT P6SM SCT040=



000
FTUS41 KILN 281100
TAFILN
TAF
KILN 281126Z 2812/2912 30011KT P6SM BKN020
     FM281600 31011KT P6SM VCSH BKN025
     FM282300 32010KT P6SM BKN035
     FM290300 32005KT P6SM SCT040=



000
FTUS41 KILN 281000 AAB
TAFILN
TAF AMD
KILN 281034Z 2811/2906 30010KT P6SM BKN018
     FM281500 31012KT P6SM -SHRA BKN025
     FM282100 32012KT P6SM BKN035
     FM290100 32008KT P6SM SCT035=



000
FTUS41 KILN 281000 AAA
TAFDAY
TAF AMD
KDAY 281034Z 2811/2906 30011KT P6SM BKN020
     FM281400 31013KT P6SM -SHRA BKN025
     FM281900 32012G20KT P6SM BKN035
     FM290000 32008KT P6SM SCT035=



000
FTUS41 KILN 281000 AAB
TAFLUK
TAF AMD
KLUK 281034Z 2811/2906 28008KT P6SM SCT020
     FM281100 30010KT P6SM BKN028
     FM281500 32010KT P6SM BKN030
     FM281800 32012KT P6SM VCSH BKN035
     FM290100 34003KT P6SM SCT035=



000
FTUS41 KILN 281000 AAB
TAFCVG
TAF AMD
KCVG 281033Z 2811/2912 28009KT P6SM FEW040
     FM281100 30011KT P6SM BKN030
     FM281500 32011KT P6SM BKN035
     FM281700 32011G19KT P6SM VCSH BKN035
     FM290100 33007KT P6SM SCT035=



000
FTUS41 KILN 280900 AAA
TAFLUK
TAF AMD
KLUK 280913Z 2809/2906 28008KT P6SM SCT020
     FM281030 30010KT P6SM BKN020
     FM281500 32010KT P6SM BKN025
     FM281800 32012KT P6SM VCSH BKN035
     FM290100 34003KT P6SM SCT035=



000
FTUS41 KILN 280900 AAA
TAFCVG
TAF AMD
KCVG 280902Z 2809/2912 28009KT P6SM FEW040
     FM281000 30011KT P6SM BKN025
     FM281500 32011KT P6SM BKN025
     FM281700 32011G19KT P6SM VCSH BKN035
     FM290100 33007KT P6SM SCT035=



000
FTUS41 KILN 280900 AAA
TAFILN
TAF AMD
KILN 280902Z 2809/2906 28009KT P6SM FEW050
     FM281000 30010KT P6SM BKN020
     FM281500 31012KT P6SM -SHRA BKN025
     FM282100 32012KT P6SM BKN035
     FM290100 32008KT P6SM SCT035=



000
FTUS41 KILN 280500
TAFDAY
TAF
KDAY 280530Z 2806/2906 30011KT P6SM FEW050
     FM280800 30011KT P6SM BKN018
     FM281400 31013KT P6SM -SHRA BKN020
     FM281900 32012G20KT P6SM BKN035
     FM290000 32008KT P6SM SCT035=



000
FTUS41 KILN 280500
TAFCVG
TAF
KCVG 280530Z 2806/2912 28009KT P6SM FEW060
     FM280900 30008KT P6SM SCT015
     FM281500 32011KT P6SM BKN025
     FM281700 32011G19KT P6SM VCSH BKN035
     FM290100 33007KT P6SM SCT035=



000
FTUS41 KILN 280500
TAFLUK
TAF
KLUK 280530Z 2806/2906 28007KT P6SM FEW060
     FM280900 30008KT P6SM SCT015
     FM281500 32010KT P6SM BKN025
     FM281800 32012KT P6SM VCSH BKN035
     FM290100 34003KT P6SM SCT035=



000
FTUS41 KILN 280500
TAFCMH
TAF
KCMH 280530Z 2806/2906 28008KT P6SM FEW020
     FM281000 30010KT P6SM BKN018
     FM281500 32012KT P6SM -SHRA BKN025
     FM282300 32010KT P6SM BKN035
     FM290300 34005KT P6SM SCT035=



000
FTUS41 KILN 280500
TAFILN
TAF
KILN 280530Z 2806/2906 28009KT P6SM FEW050
     FM280900 30010KT P6SM BKN018
     FM281500 31012KT P6SM -SHRA BKN025
     FM282100 32012KT P6SM BKN035
     FM290100 32008KT P6SM SCT035=



000
FTUS41 KILN 280500
TAFLCK
TAF
KLCK 280530Z 2806/2906 28008KT P6SM FEW020
     FM281000 30010KT P6SM BKN018
     FM281500 32012KT P6SM -SHRA BKN025
     FM282300 32010KT P6SM BKN035
     FM290300 34005KT P6SM SCT035=



000
FTUS41 KILN 280300 AAA
TAFDAY
TAF AMD
KDAY 280302Z 2803/2824 29011KT P6SM FEW040
     FM280900 30011KT P6SM VCSH OVC015
     FM281500 31012KT P6SM -SHRA OVC018
     FM281800 32012G20KT P6SM -SHRA BKN035
     FM282300 32010KT P6SM BKN035=



000
FTUS41 KILN 280300 AAC
TAFCMH
TAF AMD
KCMH 280301Z 2803/2824 28010KT P6SM SCT050
     FM280900 30009KT P6SM VCSH OVC012
     FM281500 31011KT P6SM -SHRA BKN025
     FM281800 32012G20KT P6SM -SHRA BKN035
     FM282300 32010KT P6SM BKN035=



000
FTUS41 KILN 280300 AAB
TAFLCK
TAF AMD
KLCK 280301Z 2803/2824 28010KT P6SM SCT050
     FM280900 29009KT P6SM VCSH OVC012
     FM281500 31011KT P6SM -SHRA BKN025
     FM281800 32012G20KT P6SM -SHRA BKN035
     FM282300 33010KT P6SM BKN035=



000
FTUS41 KILN 280300 AAA
TAFILN
TAF AMD
KILN 280300Z 2803/2824 28010KT P6SM FEW050
     FM280900 29010KT P6SM OVC012
     FM281500 30011KT P6SM VCSH OVC022
     FM281800 31011G19KT P6SM -SHRA BKN035
     FM282300 31010KT P6SM SCT035=



000
FTUS41 KILN 280300 AAC
TAFCVG
TAF AMD
KCVG 280300Z 2803/2906 30007KT P6SM FEW040
     FM280900 30008KT P6SM SCT015
     FM281500 31011KT P6SM BKN025
     FM281700 32011G19KT P6SM -SHRA BKN035
     FM282300 32010KT P6SM BKN035
     FM290200 33006KT P6SM SCT035=



000
FTUS41 KILN 280000 AAA
TAFLCK
TAF AMD
KLCK 280036Z 2801/2824 27012KT P6SM SCT025 BKN080
     FM280200 28012G22KT P6SM SCT035 BKN060
     FM280500 28010KT P6SM BKN050
     FM280900 29009KT P6SM VCSH OVC012
     FM281500 31011KT P6SM -SHRA BKN025
     FM281800 32012G20KT P6SM -SHRA BKN035
     FM282300 33010KT P6SM BKN035=



000
FTUS41 KILN 280000 AAB
TAFCMH
TAF AMD
KCMH 280035Z 2801/2824 28012KT P6SM SCT040 BKN080
     FM280200 28012G22KT P6SM SCT035 BKN060
     FM280500 28010KT P6SM BKN050
     FM280900 30009KT P6SM VCSH OVC012
     FM281500 31011KT P6SM -SHRA BKN025
     FM281800 32012G20KT P6SM -SHRA BKN035
     FM282300 32010KT P6SM BKN035=



000
FTUS41 KILN 280000 AAA
TAFLUK
TAF AMD
KLUK 280032Z 2801/2824 30010KT P6SM SCT040 BKN080
     FM280200 30012G22KT P6SM SCT050
     FM280300 30010KT P6SM FEW040
     FM280900 30008KT P6SM SCT015
     FM281500 31011KT P6SM BKN025
     FM281700 32011G19KT P6SM -SHRA BKN035
     FM282300 32010KT P6SM BKN035=



000
FTUS41 KILN 280000 AAB
TAFILN
TAF AMD
KILN 280031Z 2801/2824 30014KT P6SM SCT040
     FM280100 28013G23KT P6SM SCT035 BKN050
     FM280400 28010KT P6SM FEW050
     FM280900 29010KT P6SM OVC012
     FM281500 30011KT P6SM VCSH OVC022
     FM281800 31011G19KT P6SM -SHRA BKN035
     FM282300 31010KT P6SM SCT035=



000
FTUS41 KILN 280000 AAB
TAFCVG
TAF AMD
KCVG 280026Z 2800/2906 27012KT 3SM BR SCT025 BKN040
     FM280100 29014G24KT P6SM SCT050
     FM280300 30012KT P6SM FEW040
     FM280900 30008KT P6SM SCT015
     FM281500 31011KT P6SM BKN025
     FM281700 32011G19KT P6SM -SHRA BKN035
     FM282300 32010KT P6SM BKN035
     FM290200 33006KT P6SM SCT035=



000
FTUS41 KILN 280000 AAA
TAFCMH
TAF AMD
KCMH 280004Z 2800/2824 22012KT P6SM -SHRA VCTS BKN025CB
      TEMPO 2800/2801 32015G30KT 3SM -TSRA
     FM280200 28012G22KT P6SM VCSH SCT035 BKN060
     FM280500 28010KT P6SM BKN050
     FM280900 30009KT P6SM VCSH OVC012
     FM281500 31011KT P6SM -SHRA BKN025
     FM281800 32012G20KT P6SM -SHRA BKN035
     FM282300 32010KT P6SM BKN035=



000
FTUS41 KILN 280000 AAA
TAFILN
TAF AMD
KILN 280003Z 2800/2824 25014KT 5SM -SHRA SCT025
      TEMPO 2800/2801 28015G35KT 2SM -TSRA BKN025CB
     FM280100 28012G22KT P6SM SCT035 BKN050
     FM280400 28010KT P6SM FEW050
     FM280900 29010KT P6SM OVC012
     FM281500 30011KT P6SM VCSH OVC022
     FM281800 31011G19KT P6SM -SHRA BKN035
     FM282300 31010KT P6SM SCT035=



000
FTUS41 KILN 272300 AAA
TAFCVG
TAF AMD
KCVG 272357Z 2800/2906 29012G22KT P6SM -SHRA SCT025 BKN040
     FM280015 30025G40KT 1SM TSRA BKN025CB
     FM280030 30012G25KT 3SM -SHRA VCTS SCT025CB BKN040
     FM280100 29012G22KT P6SM SCT050
     FM280300 30012KT P6SM FEW040
     FM280900 30008KT P6SM SCT015
     FM281500 31011KT P6SM BKN025
     FM281700 32011G19KT P6SM -SHRA BKN035
     FM282300 32010KT P6SM BKN035
     FM290200 33006KT P6SM SCT035=



000
FTUS41 KILN 272300 AAA
TAFCVG
TAF AMD
KCVG 272351Z 2800/2906 29012G22KT P6SM -SHRA SCT025 BKN040
      TEMPO 2800/2801 5SM -SHRA
     FM280100 29012G22KT P6SM SCT050
     FM280300 30012KT P6SM FEW040
     FM280900 30008KT P6SM SCT015
     FM281500 31011KT P6SM BKN025
     FM281700 32011G19KT P6SM -SHRA BKN035
     FM282300 32010KT P6SM BKN035
     FM290200 33006KT P6SM SCT035=



000
FTUS41 KILN 272300
TAFILN
TAF
KILN 272340Z 2800/2824 25014KT 5SM -SHRA HZ SCT025
     FM280100 28012G22KT P6SM SCT035 BKN050
     FM280400 28010KT P6SM FEW050
     FM280900 29010KT P6SM OVC012
     FM281500 30011KT P6SM VCSH OVC022
     FM281800 31011G19KT P6SM -SHRA BKN035
     FM282300 31010KT P6SM SCT035=



000
FTUS41 KILN 272300
TAFLUK
TAF
KLUK 272340Z 2800/2824 27010KT 5SM HZ SCT025 BKN035
     FM280100 29010G18KT P6SM -SHRA SCT025 BKN035
     FM280200 30010G18KT P6SM SCT050
     FM280300 30010KT P6SM FEW040
     FM280900 30008KT P6SM SCT015
     FM281500 31011KT P6SM BKN025
     FM281700 32011G19KT P6SM -SHRA BKN035
     FM282300 32010KT P6SM BKN035=



000
FTUS41 KILN 272300
TAFLCK
TAF
KLCK 272340Z 2800/2824 24012KT P6SM -SHRA VCTS BKN025CB
      TEMPO 2801/2802 32012G22KT 3SM -TSRA
     FM280200 28012G22KT P6SM VCSH SCT035 BKN060
     FM280500 28010KT P6SM BKN050
     FM280900 29009KT P6SM VCSH OVC012
     FM281500 31011KT P6SM -SHRA BKN025
     FM281800 32012G20KT P6SM -SHRA BKN035
     FM282300 33010KT P6SM BKN035=



000
FTUS41 KILN 272300
TAFDAY
TAF
KDAY 272340Z 2800/2824 30015G25KT P6SM VCSH SCT035 BKN060
     FM280400 29011KT P6SM FEW040
     FM280900 30011KT P6SM VCSH OVC015
     FM281500 31012KT P6SM -SHRA OVC018
     FM281800 32012G20KT P6SM -SHRA BKN035
     FM282300 32010KT P6SM BKN035=



000
FTUS41 KILN 272300
TAFCVG
TAF
KCVG 272340Z 2800/2906 29012G22KT P6SM -SHRA SCT025 BKN040
     FM280100 29012G22KT P6SM SCT050
     FM280300 30012KT P6SM FEW040
     FM280900 30008KT P6SM SCT015
     FM281500 31011KT P6SM BKN025
     FM281700 32011G19KT P6SM -SHRA BKN035
     FM282300 32010KT P6SM BKN035
     FM290200 33006KT P6SM SCT035=



000
FTUS41 KILN 272300
TAFCMH
TAF
KCMH 272340Z 2800/2824 24012KT P6SM -SHRA VCTS BKN025CB
      TEMPO 2800/2801 32012G22KT 3SM -TSRA
     FM280200 28012G22KT P6SM VCSH SCT035 BKN060
     FM280500 28010KT P6SM BKN050
     FM280900 30009KT P6SM VCSH OVC012
     FM281500 31011KT P6SM -SHRA BKN025
     FM281800 32012G20KT P6SM -SHRA BKN035
     FM282300 32010KT P6SM BKN035=



000
FTUS41 KILN 272100 AAA
TAFDAY
TAF AMD
KDAY 272131Z 2722/2818 23010G18KT P6SM OVC012
     FM272300 27013G23KT P6SM -SHRA VCTS BKN015CB
     FM280100 29011KT P6SM BKN040
     FM280900 30011KT P6SM VCSH OVC015
     FM281500 31012KT P6SM -SHRA OVC025=



000
FTUS41 KILN 272100 AAA
TAFILN
TAF AMD
KILN 272115Z 2721/2818 24012G20KT P6SM OVC012
     FM280000 28014KT P6SM BKN025
      TEMPO 2800/2801 -SHRA
     FM280200 28010KT P6SM SCT050
     FM281000 29010KT P6SM OVC012
     FM281500 30012KT P6SM -SHRA OVC025=



000
FTUS41 KILN 272000 AAB
TAFCVG
TAF AMD
KCVG 272058Z 2721/2824 24010G18KT 5SM HZ VCSH BKN015
     FM272200 27012G22KT P6SM -SHRA BKN015
     FM280000 31011KT P6SM SCT040
     FM280800 30010KT P6SM SCT015
     FM281500 31011KT P6SM BKN025
     FM281800 32011G19KT P6SM -SHRA BKN035
     FM282300 32011KT P6SM BKN035=



000
FTUS41 KILN 272000 AAB
TAFCMH
TAF AMD
KCMH 272029Z 2720/2818 25010G18KT 3SM -SHRA VCTS BKN025CB
      TEMPO 2720/2721 27020G35KT 1/2SM TSRA BKN025CB
     FM272100 25012G20KT P6SM -SHRA VCTS BKN035CB
      TEMPO 2721/2722 3SM -TSRA BKN025CB
     FM280000 28012KT P6SM BKN035
     FM280300 29009KT P6SM SCT035
     FM281100 30010KT P6SM VCSH OVC012
     FM281500 31011KT P6SM -SHRA BKN025=



000
FTUS41 KILN 272000 AAA
TAFILN
TAF AMD
KILN 272006Z 2720/2818 23010G18KT P6SM VCSH OVC025
      TEMPO 2720/2722 OVC012
     FM272200 27014G23KT P6SM VCTS OVC015CB
     FM272300 28014KT P6SM BKN025
     FM280200 28010KT P6SM SCT050
     FM281000 29010KT P6SM OVC012
     FM281500 30012KT P6SM -SHRA OVC025=



000
FTUS41 KILN 271900 AAA
TAFLUK
TAF AMD
KLUK 271956Z 2720/2818 24010G18KT P6SM VCSH OVC015
     FM272300 25014G24KT P6SM VCSH OVC025
     FM280000 29009KT P6SM SCT040
     FM280800 29008KT P6SM SCT015
     FM281500 31011KT P6SM BKN025=



000
FTUS41 KILN 271900 AAA
TAFCVG
TAF AMD
KCVG 271954Z 2720/2824 23010G18KT P6SM VCSH OVC008
     FM272200 27014G24KT P6SM VCSH OVC025
     FM280000 31011KT P6SM SCT040
     FM280800 30010KT P6SM SCT015
     FM281500 31011KT P6SM BKN025
     FM281800 32011G19KT P6SM -SHRA BKN035
     FM282300 32011KT P6SM BKN035=



000
FTUS41 KILN 271900 AAA
TAFCMH
TAF AMD
KCMH 271930Z 2720/2818 25010G18KT P6SM -SHRA VCTS BKN025CB
     FM272015 27020G35KT 1/2SM TSRA BKN025CB
     FM272030 25012G20KT 3SM -TSRA BKN025CB
     FM272100 25012G20KT P6SM -SHRA VCTS BKN035CB
      TEMPO 2721/2722 3SM -TSRA BKN025CB
     FM280000 28012KT P6SM BKN035
     FM280300 29009KT P6SM SCT035
     FM281100 30010KT P6SM VCSH OVC012
     FM281500 31011KT P6SM -SHRA BKN025=



000
FTUS41 KILN 271700
TAFCMH
TAF
KCMH 271739Z 2718/2818 24012G22KT P6SM -SHRA VCTS BKN035CB
      TEMPO 2719/2721 3SM -TSRA BKN025CB
     FM280000 28012KT P6SM BKN035
     FM280300 29009KT P6SM SCT035
     FM281100 30010KT P6SM VCSH OVC012
     FM281500 31011KT P6SM -SHRA BKN025=



000
FTUS41 KILN 271700
TAFLCK
TAF
KLCK 271739Z 2718/2818 24012G22KT P6SM -SHRA VCTS BKN035CB
      TEMPO 2719/2721 3SM -TSRA BKN025CB
     FM280000 28012KT P6SM BKN035
     FM280300 29009KT P6SM SCT035
     FM281100 30010KT P6SM VCSH OVC012
     FM281500 31011KT P6SM -SHRA BKN025=



000
FTUS41 KILN 271700
TAFCVG
TAF
KCVG 271739Z 2718/2824 21012G20KT P6SM -SHRA BKN035 OVC250
     FM272000 27014G24KT P6SM OVC025
     FM280000 31011KT P6SM SCT040
     FM280800 30010KT P6SM SCT015
     FM281500 31011KT P6SM BKN025
     FM281800 32011G19KT P6SM -SHRA BKN035
     FM282300 32011KT P6SM BKN035=



000
FTUS41 KILN 271700
TAFILN
TAF
KILN 271739Z 2718/2818 23015G25KT P6SM VCSH BKN025
     FM271900 25013G23KT P6SM VCTS BKN025CB
     FM272200 27014G23KT P6SM VCSH OVC025
     FM280000 28014KT P6SM BKN025
     FM280200 28010KT P6SM SCT050
     FM281000 29010KT P6SM OVC012
     FM281500 30012KT P6SM -SHRA OVC025=



000
FTUS41 KILN 271700
TAFDAY
TAF
KDAY 271739Z 2718/2818 23012G22KT P6SM VCSH BKN025
     FM271900 25012G22KT P6SM -SHRA VCTS BKN025CB
     FM272100 27013G23KT P6SM VCSH SCT012 OVC025
      TEMPO 2721/2723 BKN012
     FM280000 29011KT P6SM BKN040
     FM280900 30011KT P6SM VCSH OVC015
     FM281500 31012KT P6SM -SHRA OVC025=



000
FTUS41 KILN 271700
TAFLUK
TAF
KLUK 271739Z 2718/2818 21012G20KT P6SM -SHRA BKN035 OVC250
     FM272000 25014G24KT P6SM OVC025
     FM280000 29009KT P6SM SCT040
     FM280800 29008KT P6SM SCT015
     FM281500 31011KT P6SM BKN025=



000
FTUS41 KILN 271400 AAA
TAFCVG
TAF AMD
KCVG 271456Z 2715/2818 22010G18KT P6SM -SHRA VCTS BKN025CB
     FM271700 26012G22KT P6SM VCTS BKN035CB
     FM272000 28014G22KT P6SM BKN040
     FM280000 30009KT P6SM SCT030 BKN250
     FM281300 30012KT P6SM SCT020 BKN250=



000
FTUS41 KILN 271400 AAA
TAFLUK
TAF AMD
KLUK 271454Z 2715/2812 22010G18KT P6SM -SHRA VCTS SCT015 BKN035CB
     FM271700 26012G21KT P6SM VCTS BKN035CB
     FM272000 28014G22KT P6SM BKN040
     FM280000 29006KT P6SM SCT030 BKN250=



000
FTUS41 KILN 271400 AAB
TAFDAY
TAF AMD
KDAY 271449Z 2715/2812 24010KT 6SM BR BKN012
      TEMPO 2715/2716 BKN006
     FM271600 26012G22KT P6SM -SHRA VCTS BKN035CB
      TEMPO 2718/2720 3SM -TSRA
     FM272000 28014G23KT P6SM VCSH BKN040
     FM280100 28010KT P6SM SCT030 BKN250=



000
FTUS41 KILN 271400 AAA
TAFILN
TAF AMD
KILN 271445Z 2715/2812 20008KT 4SM BR BKN006
     FM271500 21012KT P6SM VCSH BKN012
     FM271600 26012G20KT P6SM -SHRA VCTS BKN035CB
     FM272100 28014G22KT P6SM VCSH BKN040
     FM280000 28010KT P6SM SCT030 BKN250=



000
FTUS41 KILN 271400 AAA
TAFLCK
TAF AMD
KLCK 271443Z 2715/2812 20010KT P6SM BKN012
     FM271600 22010G18KT P6SM VCSH BKN025
     FM271700 26012G20KT P6SM -SHRA VCTS BKN035CB
     FM272200 28014G23KT P6SM VCSH BKN040
     FM280100 28010KT P6SM SCT030 BKN250=



000
FTUS41 KILN 271400 AAB
TAFCMH
TAF AMD
KCMH 271442Z 2715/2812 21010KT P6SM BKN012
     FM271600 23010G18KT P6SM VCSH BKN025
     FM271700 26012G20KT P6SM -SHRA VCTS BKN035CB
      TEMPO 2720/2722 3SM -TSRA
     FM272200 28014G23KT P6SM VCSH BKN040
     FM280100 28010KT P6SM SCT030 BKN250=



000
FTUS41 KILN 271300 AAA
TAFCMH
TAF AMD
KCMH 271311Z 2713/2812 21010KT 5SM HZ OVC006
     FM271500 23010G18KT P6SM VCSH BKN025
     FM271700 26012G20KT P6SM -SHRA VCTS BKN035CB
     FM272200 28014G23KT P6SM VCSH BKN040
     FM280100 28010KT P6SM SCT030 BKN250=



000
FTUS41 KILN 271200 AAA
TAFDAY
TAF AMD
KDAY 271221Z 2712/2812 20008KT 6SM BR BKN005 OVC012
     FM271400 23010KT P6SM VCSH SCT025 BKN100
      TEMPO 2714/2715 BKN022
     FM271600 26012G22KT P6SM -SHRA VCTS BKN035CB
     FM272000 28014G23KT P6SM VCSH BKN040
     FM280100 28010KT P6SM SCT030 BKN250=



000
FTUS41 KILN 271100
TAFCVG
TAF
KCVG 271138Z 2712/2818 23008KT P6SM -SHRA VCTS BKN025CB
      TEMPO 2712/2715 4SM -TSRA
     FM271700 26012G22KT P6SM VCTS BKN035CB
     FM272000 28014G22KT P6SM BKN040
     FM280000 30009KT P6SM SCT030 BKN250
     FM281300 30012KT P6SM SCT020 BKN250=



000
FTUS41 KILN 271100
TAFILN
TAF
KILN 271138Z 2712/2812 24008KT 4SM BR BKN003
     FM271300 23010KT P6SM VCSH SCT020 BKN100
      TEMPO 2713/2715 BKN025
     FM271600 26012G20KT P6SM -SHRA VCTS BKN035CB
     FM272100 28014G22KT P6SM VCSH BKN040
     FM280000 28010KT P6SM SCT030 BKN250=



000
FTUS41 KILN 271100
TAFDAY
TAF
KDAY 271138Z 2712/2812 24008KT 6SM BR SCT015 SCT100
     FM271300 23010KT P6SM VCSH SCT025 BKN100
      TEMPO 2713/2715 BKN022
     FM271600 26012G22KT P6SM -SHRA VCTS BKN035CB
     FM272000 28014G23KT P6SM VCSH BKN040
     FM280100 28010KT P6SM SCT030 BKN250=



000
FTUS41 KILN 271100
TAFCMH
TAF
KCMH 271138Z 2712/2812 21008KT P6SM SCT030 BKN100
      TEMPO 2712/2714 5SM BR SCT015 BKN025
     FM271700 26012G20KT P6SM -SHRA VCTS BKN035CB
     FM272200 28014G23KT P6SM VCSH BKN040
     FM280100 28010KT P6SM SCT030 BKN250=



000
FTUS41 KILN 271100
TAFLUK
TAF
KLUK 271138Z 2712/2812 22010KT P6SM -SHRA VCTS BKN030CB
      TEMPO 2713/2717 4SM -TSRA
     FM271700 26012G21KT P6SM VCTS BKN035CB
     FM272000 28014G22KT P6SM BKN040
     FM280000 29006KT P6SM SCT030 BKN250=



000
FTUS41 KILN 271100
TAFLCK
TAF
KLCK 271138Z 2712/2812 20008KT 5SM BR BKN015
     FM271300 21010KT P6SM SCT015 BKN025
     FM271700 26012G20KT P6SM -SHRA VCTS BKN035CB
     FM272200 28014G23KT P6SM VCSH BKN040
     FM280100 28010KT P6SM SCT030 BKN250=



000
FTUS41 KILN 271000 AAA
TAFLCK
TAF AMD
KLCK 271045Z 2711/2806 22005KT 5SM BR FEW002 SCT100
     FM271300 22008KT P6SM SCT030 BKN100
     FM271700 26012G22KT P6SM -SHRA VCTS BKN035CB
     FM280000 28011KT P6SM SCT050 BKN250=



000
FTUS41 KILN 271000 AAC
TAFILN
TAF AMD
KILN 271045Z 2711/2806 22008KT 2SM BR BKN004
     FM271200 23010KT P6SM SCT030 BKN100
     FM271700 26012G22KT P6SM -SHRA VCTS BKN035CB
     FM272200 27014G23KT P6SM BKN040
     FM280000 27010KT P6SM SCT050 BKN250=



000
FTUS41 KILN 271000 AAB
TAFILN
TAF AMD
KILN 271031Z 2711/2806 22008KT 3SM BR BKN006
     FM271300 23010KT P6SM SCT030 BKN100
     FM271700 26012G22KT P6SM -SHRA VCTS BKN035CB
     FM272200 27014G23KT P6SM BKN040
     FM280000 27010KT P6SM SCT050 BKN250=



000
FTUS41 KILN 271000 AAD
TAFCVG
TAF AMD
KCVG 271026Z 2710/2812 22006KT P6SM BKN030
     FM271300 20010KT P6SM VCTS SCT030CB BKN100
     FM271500 24012G22KT P6SM -SHRA VCTS BKN035CB
     FM272100 27014G25KT P6SM BKN040
     FM280100 30010KT P6SM SCT050 BKN250=



000
FTUS41 KILN 271000 AAA
TAFDAY
TAF AMD
KDAY 271025Z 2710/2806 22008KT 6SM BR SCT015 SCT100
      TEMPO 2710/2712 5SM BR
     FM271300 23010KT P6SM SCT030 BKN100
     FM271600 26012G22KT P6SM -SHRA VCTS BKN035CB
     FM272100 28014G23KT P6SM BKN040
     FM280000 27010KT P6SM SCT050 BKN250=



000
FTUS41 KILN 271000 AAD
TAFLUK
TAF AMD
KLUK 271025Z 2710/2806 20003KT 6SM BR SCT100
      TEMPO 2710/2712 4SM BR
     FM271300 21010KT P6SM VCTS SCT030CB BKN100
     FM271700 24012G22KT P6SM -SHRA VCTS BKN035CB
     FM272200 27014G23KT P6SM BKN040
     FM280100 27010KT P6SM SCT050 BKN250=



000
FTUS41 KILN 270900 AAA
TAFILN
TAF AMD
KILN 270950Z 2710/2806 22008KT 3SM BR FEW002 SCT100
     FM271300 23010KT P6SM SCT030 BKN100
     FM271700 26012G22KT P6SM -SHRA VCTS BKN035CB
     FM272200 27014G23KT P6SM BKN040
     FM280000 27010KT P6SM SCT050 BKN250=



000
FTUS41 KILN 270900 AAC
TAFLUK
TAF AMD
KLUK 270901Z 2709/2806 20003KT 6SM BR SCT100
      TEMPO 2709/2712 2SM BR
     FM271300 21010KT P6SM VCTS SCT030CB BKN100
     FM271700 24012G22KT P6SM -SHRA VCTS BKN035CB
     FM272200 27014G23KT P6SM BKN040
     FM280100 27010KT P6SM SCT050 BKN250=



000
FTUS41 KILN 270900 AAB
TAFCVG
TAF AMD
KCVG 270900Z 2709/2812 22006KT P6SM SCT110
     FM271300 20010KT P6SM SCT030 BKN100
     FM271700 24012G22KT P6SM -SHRA VCTS BKN035CB
     FM272200 27014G25KT P6SM BKN040
     FM280100 30010KT P6SM SCT050 BKN250=



000
FTUS41 KILN 270900 AAC
TAFCVG
TAF AMD
KCVG 270900Z 2709/2812 22006KT P6SM SCT110
     FM271300 20010KT P6SM VCTS SCT030CB BKN100
     FM271500 24012G22KT P6SM -SHRA VCTS BKN035CB
     FM272100 27014G25KT P6SM BKN040
     FM280100 30010KT P6SM SCT050 BKN250=



000
FTUS41 KILN 270800 AAB
TAFLUK
TAF AMD
KLUK 270800Z 2708/2806 20003KT 2SM BR FEW004 SCT100
      TEMPO 2708/2712 1/4SM FG
     FM271300 21010KT P6SM SCT030 BKN100
     FM271700 24012G22KT P6SM -SHRA VCTS BKN035CB
     FM272200 27014G23KT P6SM BKN040
     FM280100 27010KT P6SM SCT050 BKN250=



000
FTUS41 KILN 270700 AAA
TAFLUK
TAF AMD
KLUK 270734Z 2708/2806 20003KT 2SM BR FEW004 SCT100
     FM271300 21010KT P6SM SCT030 BKN100
     FM271700 24012G22KT P6SM -SHRA VCTS BKN035CB
     FM272200 27014G23KT P6SM BKN040
     FM280100 27010KT P6SM SCT050 BKN250=



000
FTUS41 KILN 270500 AAA
TAFCVG
TAF AMD
KCVG 270557Z 2706/2812 21007KT 5SM BR FEW002 SCT110
     FM271300 20010KT P6SM SCT030 BKN100
     FM271700 24012G22KT P6SM -SHRA VCTS BKN035CB
     FM272200 27014G25KT P6SM BKN040
     FM280100 30010KT P6SM SCT050 BKN250=



000
FTUS41 KILN 270500
TAFDAY
TAF
KDAY 270520Z 2706/2806 23008KT P6SM BKN050 OVC110
     FM270800 22008KT 6SM BR FEW002 SCT100
     FM271300 23010KT P6SM SCT030 BKN100
     FM271600 26012G22KT P6SM -SHRA VCTS BKN035CB
     FM272100 28014G23KT P6SM BKN040
     FM280000 27010KT P6SM SCT050 BKN250=



000
FTUS41 KILN 270500
TAFCVG
TAF
KCVG 270520Z 2706/2812 21007KT P6SM BKN050 OVC110
     FM270800 22006KT 6SM BR FEW002 SCT100
     FM271300 20010KT P6SM SCT030 BKN100
     FM271700 24012G22KT P6SM -SHRA VCTS BKN035CB
     FM272200 27014G25KT P6SM BKN040
     FM280100 30010KT P6SM SCT050 BKN250=



000
FTUS41 KILN 270500
TAFILN
TAF
KILN 270520Z 2706/2806 23008KT P6SM BKN050 OVC110
     FM270800 22008KT 6SM BR FEW002 SCT100
     FM271300 23010KT P6SM SCT030 BKN100
     FM271700 26012G22KT P6SM -SHRA VCTS BKN035CB
     FM272200 27014G23KT P6SM BKN040
     FM280000 27010KT P6SM SCT050 BKN250=



000
FTUS41 KILN 270500
TAFCMH
TAF
KCMH 270520Z 2706/2806 21005KT P6SM BKN050 OVC110
     FM270900 22005KT 6SM BR FEW002 SCT100
     FM271300 22008KT P6SM SCT030 BKN100
     FM271700 26012G22KT P6SM -SHRA VCTS BKN035CB
     FM280000 28011KT P6SM SCT050 BKN250=



000
FTUS41 KILN 270500
TAFLCK
TAF
KLCK 270520Z 2706/2806 21005KT P6SM BKN050 OVC110
     FM270900 22005KT 6SM BR FEW002 SCT100
     FM271300 22008KT P6SM SCT030 BKN100
     FM271700 26012G22KT P6SM -SHRA VCTS BKN035CB
     FM280000 28011KT P6SM SCT050 BKN250=



000
FTUS41 KILN 270500
TAFLUK
TAF
KLUK 270520Z 2706/2806 21006KT P6SM BKN050 OVC110
     FM270800 20005KT 6SM BR FEW004 SCT100
     FM271300 21010KT P6SM SCT030 BKN100
     FM271700 24012G22KT P6SM -SHRA VCTS BKN035CB
     FM272200 27014G23KT P6SM BKN040
     FM280100 27010KT P6SM SCT050 BKN250=



000
FTUS41 KILN 270400 AAB
TAFCVG
TAF AMD
KCVG 270401Z 2704/2806 21007KT P6SM -SHRA BKN040 OVC150
      TEMPO 2704/2706 3SM -TSRA OVC025CB
     FM270800 20008KT P6SM VCSH SCT080 OVC100
     FM271700 24011G20KT P6SM -SHRA VCTS BKN035CB
     FM272200 27014G25KT P6SM BKN040
     FM280000 28014KT P6SM SCT050 BKN200=



000
FTUS41 KILN 270300 AAB
TAFCMH
TAF AMD
KCMH 270356Z 2704/2724 22008KT P6SM VCSH BKN035 OVC050
      TEMPO 2704/2705 3SM -TSRA OVC020CB
     FM270700 20007KT P6SM SCT035 OVC050
     FM271500 22011G19KT P6SM -SHRA VCTS BKN035CB
     FM272300 27015G25KT P6SM VCSH BKN040=



000
FTUS41 KILN 270300 AAD
TAFDAY
TAF AMD
KDAY 270353Z 2704/2724 22010KT P6SM VCSH BKN040 OVC150
      TEMPO 2704/2705 3SM -TSRA OVC035CB
     FM270600 20008KT P6SM BKN035 BKN080
     FM271500 23011G20KT P6SM -SHRA VCTS BKN035CB
     FM272200 26012G25KT P6SM VCSH BKN050=



000
FTUS41 KILN 270300 AAD
TAFLUK
TAF AMD
KLUK 270337Z 2704/2724 21005KT P6SM VCSH OVC040
      TEMPO 2704/2706 3SM -TSRA OVC025CB
     FM270800 20008KT P6SM VCSH SCT080 OVC100
     FM271700 24011G19KT P6SM -SHRA VCTS BKN035CB
     FM272200 27014G22KT P6SM BKN040=



000
FTUS41 KILN 270300 AAC
TAFLUK
TAF AMD
KLUK 270336Z 2704/2724 21005KT P6SM -SHRA OVC040
      TEMPO 2704/2705 22010G29KT 2SM -TSRA OVC025CB
     FM270800 20008KT P6SM VCSH SCT080 OVC100
     FM271700 24011G19KT P6SM -SHRA VCTS BKN035CB
     FM272200 27014G22KT P6SM BKN040=



000
FTUS41 KILN 270300 AAA
TAFLCK
TAF AMD
KLCK 270326Z 2703/2724 20008KT P6SM VCSH BKN035
      TEMPO 2703/2705 3SM -TSRA OVC025CB
     FM270700 20006KT P6SM VCSH SCT035 OVC080
     FM271700 21010G18KT P6SM -SHRA VCTS BKN035CB
     FM272300 27015G25KT P6SM VCSH BKN040=



000
FTUS41 KILN 270300 AAC
TAFDAY
TAF AMD
KDAY 270322Z 2703/2724 22010KT P6SM -SHRA VCTS BKN040CB OVC150
      TEMPO 2703/2705 3SM -TSRA OVC025CB
     FM270600 20008KT P6SM VCSH SCT035 BKN080
     FM271600 23011G20KT P6SM -SHRA VCTS BKN035CB
     FM272100 26012G25KT P6SM VCSH BKN050=



000
FTUS41 KILN 270300 AAA
TAFCMH
TAF AMD
KCMH 270312Z 2703/2724 22008KT P6SM VCSH BKN035 OVC050
      TEMPO 2703/2706 3SM -TSRA OVC020CB
     FM271000 20007KT P6SM VCSH SCT035 OVC050
     FM271700 22011G19KT P6SM -SHRA VCTS BKN035CB
     FM272300 27015G25KT P6SM VCSH BKN040=



000
FTUS41 KILN 270300 AAA
TAFILN
TAF AMD
KILN 270310Z 2703/2724 21005KT P6SM VCSH BKN040 OVC150
      TEMPO 2703/2705 3SM -TSRA OVC020CB
     FM270900 20008KT P6SM VCSH SCT035 OVC080
     FM271600 23011G19KT P6SM -SHRA VCTS BKN035CB
     FM272300 28015G25KT P6SM SCT040 BKN200=



000
FTUS41 KILN 270200 AAB
TAFLUK
TAF AMD
KLUK 270245Z 2703/2724 21005KT P6SM -SHRA VCTS OVC040CB
      TEMPO 2703/2705 22010G25KT 2SM -TSRA OVC025CB
     FM270800 20008KT P6SM VCSH SCT080 OVC100
     FM271700 24011G19KT P6SM -SHRA VCTS BKN035CB
     FM272200 27014G22KT P6SM BKN040=



000
FTUS41 KILN 270200 AAB
TAFDAY
TAF AMD
KDAY 270217Z 2702/2724 22010KT P6SM -SHRA VCTS BKN040CB OVC150
      TEMPO 2703/2706 2SM -TSRA OVC020CB
     FM270800 20008KT P6SM VCSH SCT035 BKN080
     FM271600 23011G20KT P6SM -SHRA VCTS BKN035CB
     FM272100 26012G25KT P6SM VCSH BKN050=



000
FTUS41 KILN 270200 AAA
TAFILN
TAF AMD
KILN 270216Z 2702/2724 21005KT P6SM -SHRA VCTS BKN040CB OVC150
      TEMPO 2702/2705 2SM -TSRA OVC020CB
     FM270900 20008KT P6SM VCSH SCT035 OVC080
     FM271600 23011G19KT P6SM -SHRA VCTS BKN035CB
     FM272300 28015G25KT P6SM SCT040 BKN200=



000
FTUS41 KILN 270100 AAA
TAFLUK
TAF AMD
KLUK 270159Z 2702/2724 21005KT P6SM -SHRA VCTS OVC040CB
      TEMPO 2702/2705 2SM -TSRA OVC025CB
     FM270800 20008KT P6SM VCSH SCT080 OVC100
     FM271700 24011G19KT P6SM -SHRA VCTS BKN035CB
     FM272200 27014G22KT P6SM BKN040=



000
FTUS41 KILN 270100 AAA
TAFCVG
TAF AMD
KCVG 270152Z 2702/2806 21007KT P6SM -SHRA VCTS BKN040CB OVC150
      TEMPO 2702/2705 2SM -TSRA OVC020CB
     FM270800 20008KT P6SM VCSH SCT080 OVC100
     FM271700 24011G20KT P6SM -SHRA VCTS BKN035CB
     FM272200 27014G25KT P6SM BKN040
     FM280000 28014KT P6SM SCT050 BKN200=



000
FTUS41 KILN 270000 AAA
TAFDAY
TAF AMD
KDAY 270035Z 2701/2724 21008KT P6SM BKN035
     FM270300 21007KT 3SM -SHRA VCTS BKN040CB OVC150
      TEMPO 2703/2707 2SM -TSRA OVC020CB
     FM270900 20008KT P6SM VCSH SCT035 BKN080
     FM271600 23011G20KT P6SM -SHRA VCTS BKN035CB
     FM272100 26012G25KT P6SM VCSH BKN050=



000
FTUS41 KILN 262300
TAFLCK
TAF
KLCK 262338Z 2700/2724 21005KT P6SM OVC040
     FM270500 21006KT 5SM -SHRA VCTS BKN040CB OVC150
      TEMPO 2706/2709 2SM -TSRA OVC020CB
     FM271000 20006KT P6SM VCSH SCT035 OVC080
     FM271700 21010G18KT P6SM -SHRA VCTS BKN035CB
     FM272300 27015G25KT P6SM VCSH BKN040=



000
FTUS41 KILN 262300
TAFLUK
TAF
KLUK 262338Z 2700/2724 21005KT P6SM OVC040
     FM270400 21005KT 3SM -SHRA VCTS BKN040CB OVC150
      TEMPO 2704/2707 1SM -TSRA OVC020CB
     FM270900 20008KT P6SM VCSH SCT080 OVC100
     FM271700 24011G19KT P6SM -SHRA VCTS BKN035CB
     FM272200 27014G22KT P6SM BKN040=



000
FTUS41 KILN 262300
TAFILN
TAF
KILN 262338Z 2700/2724 22008KT P6SM BKN040 OVC200
     FM270400 21007KT 3SM -SHRA VCTS BKN040CB OVC150
      TEMPO 2704/2708 1SM -TSRA OVC020CB
     FM270900 20008KT P6SM VCSH SCT035 OVC080
     FM271600 23011G19KT P6SM -SHRA VCTS BKN035CB
     FM272300 28015G25KT P6SM SCT040 BKN200=



000
FTUS41 KILN 262300
TAFDAY
TAF
KDAY 262338Z 2700/2724 21008KT P6SM BKN035
     FM270400 21007KT 3SM -SHRA VCTS BKN040CB OVC150
      TEMPO 2704/2707 2SM -TSRA OVC020CB
     FM270900 20008KT P6SM VCSH SCT035 BKN080
     FM271600 23011G20KT P6SM -SHRA VCTS BKN035CB
     FM272100 26012G25KT P6SM VCSH BKN050=



000
FTUS41 KILN 262300
TAFCMH
TAF
KCMH 262338Z 2700/2724 22008KT P6SM BKN040 OVC200
     FM270500 21007KT 5SM -SHRA VCTS BKN040CB OVC150
      TEMPO 2706/2709 2SM -TSRA OVC020CB
     FM271000 20007KT P6SM VCSH SCT035 OVC080
     FM271700 22011G19KT P6SM -SHRA VCTS BKN035CB
     FM272300 27015G25KT P6SM VCSH BKN040=



000
FTUS41 KILN 262300
TAFCVG
TAF
KCVG 262338Z 2700/2806 20012KT P6SM BKN040 OVC150
     FM270400 21007KT 3SM -SHRA VCTS BKN040CB OVC150
      TEMPO 2704/2707 1SM -TSRA OVC020CB
     FM270900 20008KT P6SM VCSH SCT080 OVC100
     FM271700 24011G20KT P6SM -SHRA VCTS BKN035CB
     FM272200 27014G25KT P6SM BKN040
     FM280000 28014KT P6SM SCT050 BKN200=



000
FTUS41 KILN 262200 AAC
TAFCMH
TAF AMD
KCMH 262224Z 2622/2718 22012G20KT P6SM VCSH BKN035
     FM262300 22008KT P6SM BKN040 OVC200
     FM270400 21007KT 3SM -SHRA VCTS BKN040CB OVC150
      TEMPO 2705/2709 2SM -TSRA OVC020CB
     FM271000 20007KT P6SM VCSH SCT035 OVC080
     FM271600 21011G19KT P6SM -SHRA VCTS BKN035CB=



000
FTUS41 KILN 262100 AAB
TAFCMH
TAF AMD
KCMH 262112Z 2621/2718 22012G20KT P6SM VCTS BKN035CB
      TEMPO 2621/2623 4SM TSRA BR BKN030CB
     FM262300 22008KT P6SM BKN040 OVC200
     FM270500 21007KT 3SM -SHRA VCTS BKN040CB OVC150
      TEMPO 2705/2709 2SM -TSRA OVC020CB
     FM271000 20007KT P6SM VCSH SCT035 OVC080
     FM271600 21011G19KT P6SM -SHRA VCTS BKN035CB=



000
FTUS41 KILN 262000 AAA
TAFCVG
TAF AMD
KCVG 262056Z 2621/2724 20012KT P6SM BKN040 OVC200
     FM270400 21007KT 3SM -SHRA VCTS BKN040CB OVC150
      TEMPO 2704/2707 1SM -TSRA OVC020CB
     FM270900 20008KT P6SM VCSH SCT080 OVC100
     FM271600 24011G19KT P6SM -SHRA VCTS BKN035CB
     FM272000 28014G25KT P6SM BKN040=



000
FTUS41 KILN 261900 AAA
TAFCMH
TAF AMD
KCMH 261928Z 2619/2718 22011G19KT P6SM BKN040
     FM262000 22012G25KT P6SM VCTS BKN035CB
      TEMPO 2620/2622 4SM TSRA BR BKN030CB
     FM262300 22008KT P6SM BKN040 OVC200
     FM270500 21007KT 3SM -SHRA VCTS BKN040CB OVC150
      TEMPO 2705/2709 2SM -TSRA OVC020CB
     FM271000 20007KT P6SM VCSH SCT035 OVC080
     FM271600 21011G19KT P6SM -SHRA VCTS BKN035CB=



000
FTUS41 KILN 261700
TAFDAY
TAF
KDAY 261720Z 2618/2718 22011G19KT P6SM BKN035
     FM262300 22008KT P6SM BKN040 OVC200
     FM270300 21007KT 3SM -SHRA VCTS BKN040CB OVC150
      TEMPO 2703/2707 2SM -TSRA OVC020CB
     FM270900 20008KT P6SM VCSH SCT035 BKN080
     FM271500 23011G19KT P6SM -SHRA VCTS BKN035CB=



000
FTUS41 KILN 261700
TAFCVG
TAF
KCVG 261720Z 2618/2724 21011G19KT P6SM SCT035 BKN250
     FM262300 22010KT P6SM BKN040 OVC200
     FM270300 21007KT 3SM -SHRA VCTS BKN040CB OVC150
      TEMPO 2703/2707 1SM -TSRA OVC020CB
     FM270900 20008KT P6SM VCSH SCT080 OVC100
     FM271600 24011G19KT P6SM -SHRA VCTS BKN035CB
     FM272000 28014G25KT P6SM BKN040=



000
FTUS41 KILN 261700
TAFLCK
TAF
KLCK 261720Z 2618/2718 22011G19KT P6SM SCT040 BKN250
     FM262100 22012G20KT P6SM VCTS BKN040CB
     FM262300 22007KT P6SM BKN040 OVC200
     FM270500 21006KT 3SM -SHRA VCTS BKN040CB OVC150
      TEMPO 2705/2709 2SM -TSRA OVC020CB
     FM271000 20006KT P6SM VCSH SCT035 OVC080
     FM271600 21010G18KT P6SM -SHRA VCTS BKN035CB=



000
FTUS41 KILN 261700
TAFILN
TAF
KILN 261720Z 2618/2718 22011G19KT P6SM BKN035
     FM262300 22008KT P6SM BKN040 OVC200
     FM270400 21007KT 3SM -SHRA VCTS BKN040CB OVC150
      TEMPO 2704/2708 1SM -TSRA OVC020CB
     FM270900 20008KT P6SM VCSH SCT035 OVC080
     FM271600 23011G19KT P6SM -SHRA VCTS BKN035CB=



000
FTUS41 KILN 261700
TAFLUK
TAF
KLUK 261720Z 2618/2718 21010KT P6SM BKN040
     FM261900 22011G19KT P6SM SCT035 BKN200
     FM262300 22008KT P6SM BKN040 OVC200
     FM270300 21005KT 3SM -SHRA VCTS BKN040CB OVC150
      TEMPO 2704/2707 1SM -TSRA OVC020CB
     FM270900 20008KT P6SM VCSH SCT080 OVC100
     FM271600 24011G19KT P6SM -SHRA VCTS BKN035CB=



000
FTUS41 KILN 261700
TAFCMH
TAF
KCMH 261720Z 2618/2718 22011G19KT P6SM SCT040 BKN250
     FM262100 22012G20KT P6SM VCTS BKN040CB
     FM262300 22008KT P6SM BKN040 OVC200
     FM270500 21007KT 3SM -SHRA VCTS BKN040CB OVC150
      TEMPO 2705/2709 2SM -TSRA OVC020CB
     FM271000 20007KT P6SM VCSH SCT035 OVC080
     FM271600 21011G19KT P6SM -SHRA VCTS BKN035CB=



    US Dept of Commerce
    National Oceanic and Atmospheric Administration
    National Weather Service
    1325 East West Highway
    Silver Spring, MD 20910
    Page Author: NWS Internet Services Team
Disclaimer
Information Quality
Credits
Glossary
Privacy Policy
Freedom of Information Act (FOIA)
About Us
Career Opportunities